createdAt,value
2022-08-26T00:02:34.161Z,9.10
2022-08-26T00:05:35.973Z,8.20
2022-08-26T00:08:38.833Z,7.45
2022-08-26T00:11:44.452Z,7.93
2022-08-26T00:14:46.437Z,8.85
2022-08-26T00:17:50.058Z,8.65
2022-08-26T00:20:51.825Z,8.60
2022-08-26T00:23:53.652Z,10.43
2022-08-26T00:26:55.384Z,15.98
2022-08-26T00:29:57.275Z,10.65
2022-08-26T00:33:00.311Z,13.18
2022-08-26T00:36:02.285Z,8.88
2022-08-26T00:39:06.900Z,9.20
2022-08-26T00:42:08.603Z,12.82
2022-08-26T00:45:11.809Z,11.13
2022-08-26T00:48:17.932Z,12.13
2022-08-26T00:51:23.165Z,8.82
2022-08-26T00:54:32.428Z,12.85
2022-08-26T00:57:35.661Z,7.28
2022-08-26T01:00:37.483Z,10.18
2022-08-26T01:03:41.645Z,8.63
2022-08-26T01:06:44.304Z,9.40
2022-08-26T01:09:46.868Z,9.23
2022-08-26T01:12:57.296Z,8.80
2022-08-26T01:16:02.509Z,13.45
2022-08-26T01:19:25.211Z,10.23
2022-08-26T01:22:45.408Z,11.25
2022-08-26T01:25:51.973Z,9.82
2022-08-26T01:28:56.609Z,14.10
2022-08-26T01:31:59.045Z,9.30
2022-08-26T01:35:01.527Z,10.60
2022-08-26T01:38:04.653Z,12.23
2022-08-26T01:41:19.614Z,13.75
2022-08-26T01:44:25.988Z,13.93
2022-08-26T01:47:31.386Z,13.20
2022-08-26T01:50:35.867Z,14.70
2022-08-26T01:53:39.401Z,16.08
2022-08-26T01:56:43.676Z,15.45
2022-08-26T01:59:46.952Z,16.13
2022-08-26T02:03:12.072Z,15.88
2022-08-26T02:06:14.933Z,18.35
2022-08-26T02:09:18.764Z,21.55
2022-08-26T02:12:22.784Z,18.75
2022-08-26T02:15:24.707Z,21.55
2022-08-26T02:18:29.673Z,20.35
2022-08-26T02:21:32.504Z,24.80
2022-08-26T02:24:54.729Z,24.95
2022-08-26T02:27:56.849Z,33.40
2022-08-26T02:30:58.600Z,31.95
2022-08-26T02:34:15.242Z,34.97
2022-08-26T02:37:17.630Z,36.28
2022-08-26T02:40:25.468Z,36.83
2022-08-26T02:43:31.403Z,41.35
2022-08-26T02:46:35.077Z,40.33
2022-08-26T02:49:42.008Z,45.90
2022-08-26T02:52:46.228Z,44.25
2022-08-26T02:55:49.413Z,51.00
2022-08-26T02:58:51.742Z,41.60
2022-08-26T03:01:56.088Z,46.08
2022-08-26T03:05:01.964Z,45.30
2022-08-26T03:08:04.628Z,50.10
2022-08-26T03:11:06.317Z,51.03
2022-08-26T03:14:08.414Z,52.55
2022-08-26T03:17:10.137Z,54.53
2022-08-26T03:20:13.682Z,54.63
2022-08-26T03:23:17.417Z,62.03
2022-08-26T03:26:20.677Z,58.47
2022-08-26T03:29:42.095Z,53.60
2022-08-26T03:32:44.467Z,52.83
2022-08-26T03:35:47.966Z,61.03
2022-08-26T03:38:52.545Z,58.00
2022-08-26T03:41:55.356Z,58.13
2022-08-26T03:44:57.121Z,58.83
2022-08-26T03:47:59.386Z,58.95
2022-08-26T03:51:03.163Z,55.60
2022-08-26T03:54:06.030Z,66.07
2022-08-26T03:57:10.025Z,57.60
2022-08-26T04:00:18.427Z,60.25
2022-08-26T04:03:40.409Z,62.95
2022-08-26T04:06:43.418Z,61.90
2022-08-26T04:09:46.552Z,62.17
2022-08-26T04:12:48.486Z,68.00
2022-08-26T04:15:50.547Z,68.20
2022-08-26T04:18:52.830Z,72.63
2022-08-26T04:21:54.614Z,67.78
2022-08-26T04:24:56.581Z,68.35
2022-08-26T04:27:58.338Z,69.88
2022-08-26T04:31:00.170Z,68.65
2022-08-26T04:34:02.830Z,69.30
2022-08-26T04:37:05.616Z,72.43
2022-08-26T04:40:09.896Z,74.25
2022-08-26T04:43:11.933Z,71.30
2022-08-26T04:46:18.435Z,68.57
2022-08-26T04:49:21.133Z,69.75
2022-08-26T04:52:23.283Z,74.03
2022-08-26T04:55:38.486Z,68.80
2022-08-26T04:58:41.855Z,72.40
2022-08-26T05:01:45.913Z,64.78
2022-08-26T05:04:48.314Z,64.93
2022-08-26T05:07:53.632Z,62.67
2022-08-26T05:10:55.990Z,65.78
2022-08-26T05:14:01.623Z,67.22
2022-08-26T05:17:04.219Z,58.13
2022-08-26T05:20:06.837Z,63.40
2022-08-26T05:23:08.995Z,62.38
2022-08-26T05:26:10.849Z,64.10
2022-08-26T05:29:13.872Z,62.83
2022-08-26T05:32:15.573Z,63.78
2022-08-26T05:35:17.927Z,61.05
2022-08-26T05:38:21.615Z,66.45
2022-08-26T05:41:34.171Z,62.50
2022-08-26T05:44:55.503Z,64.38
2022-08-26T05:47:57.892Z,56.65
2022-08-26T05:51:06.418Z,62.15
2022-08-26T05:54:08.717Z,61.30
2022-08-26T05:57:13.752Z,53.22
2022-08-26T06:00:16.071Z,56.63
2022-08-26T06:03:17.822Z,55.20
2022-08-26T06:06:27.790Z,53.05
2022-08-26T06:09:30.773Z,49.17
2022-08-26T06:12:33.688Z,59.22
2022-08-26T06:15:38.654Z,45.80
2022-08-26T06:18:45.717Z,48.95
2022-08-26T06:21:51.339Z,51.83
2022-08-26T06:25:14.819Z,54.25
2022-08-26T06:28:17.230Z,50.13
2022-08-26T06:31:19.851Z,50.03
2022-08-26T06:34:23.234Z,46.22
2022-08-26T06:37:31.328Z,50.55
2022-08-26T06:40:50.457Z,46.78
2022-08-26T06:43:52.359Z,49.85
2022-08-26T06:46:54.283Z,39.17
2022-08-26T06:49:56.470Z,45.42
2022-08-26T06:52:58.388Z,43.58
2022-08-26T06:56:07.291Z,45.08
2022-08-26T06:59:12.553Z,41.92
2022-08-26T07:02:15.074Z,40.53
2022-08-26T07:05:19.583Z,47.28
2022-08-26T07:08:22.371Z,46.03
2022-08-26T07:11:24.068Z,41.40
2022-08-26T07:14:26.541Z,41.90
2022-08-26T07:17:28.471Z,41.05
2022-08-26T07:20:30.247Z,38.20
2022-08-26T07:23:32.820Z,45.30
2022-08-26T07:26:35.170Z,37.95
2022-08-26T07:29:39.491Z,36.75
2022-08-26T07:32:41.851Z,32.65
2022-08-26T07:35:44.755Z,34.00
2022-08-26T07:38:48.085Z,31.45
2022-08-26T07:41:50.908Z,32.53
2022-08-26T07:44:52.634Z,29.58
2022-08-26T07:47:54.707Z,35.80
2022-08-26T07:50:56.431Z,29.73
2022-08-26T07:53:58.619Z,33.75
2022-08-26T07:57:00.415Z,30.23
2022-08-26T08:00:12.759Z,31.38
2022-08-26T08:03:15.179Z,34.08
2022-08-26T08:06:17.928Z,31.70
2022-08-26T08:09:19.777Z,31.10
2022-08-26T08:12:24.128Z,28.67
2022-08-26T08:15:29.795Z,28.80
2022-08-26T08:18:31.812Z,30.55
2022-08-26T08:21:33.547Z,30.92
2022-08-26T08:24:35.489Z,27.70
2022-08-26T08:27:38.803Z,28.70
2022-08-26T08:30:41.693Z,27.88
2022-08-26T08:33:43.421Z,35.20
2022-08-26T08:36:46.206Z,32.03
2022-08-26T08:39:48.979Z,31.90
2022-08-26T08:43:06.092Z,27.17
2022-08-26T08:46:12.730Z,26.75
2022-08-26T08:49:15.248Z,36.85
2022-08-26T08:52:29.415Z,30.23
2022-08-26T08:55:55.918Z,29.70
2022-08-26T08:59:19.557Z,27.25
2022-08-26T09:02:51.073Z,27.30
2022-08-26T09:05:54.565Z,32.83
2022-08-26T09:08:57.527Z,25.73
2022-08-26T09:12:01.626Z,29.52
2022-08-26T09:15:11.216Z,21.17
2022-08-26T09:18:34.458Z,29.90
2022-08-26T09:21:36.245Z,21.88
2022-08-26T09:24:48.471Z,28.77
2022-08-26T09:27:53.449Z,20.73
2022-08-26T09:31:14.071Z,23.75
2022-08-26T09:34:27.628Z,29.50
2022-08-26T09:41:05.124Z,23.95
2022-08-26T09:44:09.789Z,24.85
2022-08-26T09:47:32.061Z,24.55
2022-08-26T09:50:54.756Z,22.67
2022-08-26T09:54:01.790Z,27.60
2022-08-26T09:57:26.976Z,29.80
2022-08-26T10:00:40.325Z,22.23
2022-08-26T10:03:42.934Z,22.40
2022-08-26T10:06:57.535Z,17.98
2022-08-26T10:09:59.895Z,23.88
2022-08-26T10:13:09.444Z,29.60
2022-08-26T10:16:22.131Z,24.98
2022-08-26T10:19:41.743Z,19.77
2022-08-26T10:23:14.095Z,18.23
2022-08-26T10:26:24.283Z,27.98
2022-08-26T10:29:34.144Z,25.17
2022-08-26T10:32:41.687Z,26.58
2022-08-26T10:35:57.469Z,23.75
2022-08-26T10:39:04.429Z,25.30
2022-08-26T10:42:21.949Z,23.95
2022-08-26T10:45:27.581Z,20.50
2022-08-26T10:48:41.925Z,24.98
2022-08-26T10:52:12.358Z,23.10
2022-08-26T10:55:49.119Z,19.10
2022-08-26T10:59:20.510Z,21.67
2022-08-26T11:02:31.369Z,20.52
2022-08-26T11:05:33.296Z,18.60
2022-08-26T11:08:34.994Z,22.83
2022-08-26T11:11:39.739Z,21.45
2022-08-26T11:14:53.629Z,17.20
2022-08-26T11:18:01.917Z,21.48
2022-08-26T11:21:16.359Z,18.80
2022-08-26T11:24:52.317Z,16.83
2022-08-26T11:27:58.230Z,20.92
2022-08-26T11:30:59.948Z,15.13
2022-08-26T11:34:03.493Z,13.90
2022-08-26T11:37:15.554Z,13.75
2022-08-26T11:40:26.702Z,20.13
2022-08-26T11:43:29.872Z,13.27
2022-08-26T11:46:35.682Z,12.75
2022-08-26T11:49:37.908Z,14.85
2022-08-26T11:52:39.712Z,10.32
2022-08-26T11:55:44.816Z,16.58
2022-08-26T11:58:49.878Z,10.25
2022-08-26T12:01:53.930Z,8.43
2022-08-26T12:04:56.729Z,10.35
2022-08-26T12:08:11.932Z,9.18
2022-08-26T12:11:23.442Z,9.63
2022-08-26T12:14:27.663Z,12.25
2022-08-26T12:17:29.923Z,10.07
2022-08-26T12:20:46.212Z,13.00
2022-08-26T12:23:50.830Z,9.75
2022-08-26T12:27:18.357Z,8.60
2022-08-26T12:30:24.530Z,10.95
2022-08-26T12:33:28.742Z,9.65
2022-08-26T12:36:38.891Z,10.13
2022-08-26T12:39:44.454Z,11.57
2022-08-26T12:42:46.697Z,9.10
2022-08-26T12:45:57.662Z,8.48
2022-08-26T12:49:01.675Z,10.25
2022-08-26T12:52:04.923Z,10.43
2022-08-26T12:55:19.119Z,7.15
2022-08-26T12:58:28.942Z,13.05
2022-08-26T13:01:38.930Z,9.55
2022-08-26T13:04:42.715Z,8.48
2022-08-26T13:07:44.483Z,11.00
2022-08-26T13:10:47.666Z,9.00
2022-08-26T13:13:52.547Z,11.30
2022-08-26T13:16:55.260Z,8.27
2022-08-26T13:20:03.316Z,10.32
2022-08-26T13:23:05.687Z,12.82
2022-08-26T13:26:07.508Z,8.63
2022-08-26T13:29:10.771Z,15.32
2022-08-26T13:32:12.968Z,8.45
2022-08-26T13:35:14.773Z,10.63
2022-08-26T13:38:20.575Z,11.63
2022-08-26T13:41:36.180Z,7.75
2022-08-26T13:44:38.951Z,6.70
2022-08-26T13:47:40.649Z,8.50
2022-08-26T13:50:42.355Z,9.77
2022-08-26T13:53:44.373Z,10.88
2022-08-26T13:56:46.100Z,10.50
2022-08-26T13:59:47.803Z,8.50
2022-08-26T14:02:49.776Z,9.57
2022-08-26T14:05:53.276Z,8.27
2022-08-26T14:08:55.034Z,6.60
2022-08-26T14:11:58.128Z,8.05
2022-08-26T14:15:00.693Z,12.38
2022-08-26T14:18:05.025Z,7.65
2022-08-26T14:21:10.920Z,5.22
2022-08-26T14:24:12.657Z,4.60
2022-08-26T14:27:14.795Z,5.78
2022-08-26T14:30:17.301Z,6.70
2022-08-26T14:33:23.312Z,11.27
2022-08-26T14:36:33.896Z,5.85
2022-08-26T14:39:35.777Z,8.35
2022-08-26T14:42:37.496Z,9.50
2022-08-26T14:48:49.310Z,7.20
2022-08-26T14:51:51.036Z,6.93
2022-08-26T14:54:54.833Z,8.18
2022-08-26T14:57:57.111Z,5.57
2022-08-26T15:00:59.725Z,7.20
2022-08-26T15:04:06.128Z,7.28
2022-08-26T15:07:12.733Z,9.25
2022-08-26T15:10:16.740Z,5.20
2022-08-26T15:13:18.425Z,7.82
2022-08-26T15:16:20.692Z,4.45
2022-08-26T15:19:24.354Z,5.03
2022-08-26T15:22:26.572Z,5.03
2022-08-26T15:25:31.663Z,7.60
2022-08-26T15:28:33.363Z,5.35
2022-08-26T15:31:35.487Z,8.60
2022-08-26T15:34:37.653Z,14.35
2022-08-26T15:37:39.455Z,5.55
2022-08-26T15:40:41.376Z,7.80
2022-08-26T15:43:43.206Z,6.40
2022-08-26T15:46:46.929Z,8.82
2022-08-26T15:49:48.799Z,11.38
2022-08-26T15:52:50.833Z,6.18
2022-08-26T15:55:56.442Z,13.82
2022-08-26T15:58:59.056Z,5.15
2022-08-26T16:02:01.786Z,7.18
2022-08-26T16:05:03.831Z,4.20
2022-08-26T16:08:07.534Z,8.02
2022-08-26T16:11:09.470Z,4.78
2022-08-26T16:14:11.295Z,5.95
2022-08-26T16:17:13.124Z,5.95
2022-08-26T16:20:16.805Z,9.55
2022-08-26T16:23:18.838Z,5.28
2022-08-26T16:26:26.722Z,5.13
2022-08-26T16:29:28.472Z,4.70
2022-08-26T16:32:31.330Z,6.05
2022-08-26T16:35:33.453Z,7.63
2022-08-26T16:38:37.483Z,3.25
2022-08-26T16:41:39.651Z,7.57
2022-08-26T16:44:44.460Z,2.47
2022-08-26T16:47:47.823Z,7.78
2022-08-26T16:50:50.521Z,5.43
2022-08-26T16:53:53.736Z,3.63
2022-08-26T16:56:55.507Z,3.78
2022-08-26T16:59:57.579Z,3.78
2022-08-26T17:03:01.002Z,5.35
2022-08-26T17:06:03.143Z,7.75
2022-08-26T17:09:04.988Z,3.55
2022-08-26T17:12:06.990Z,4.78
2022-08-26T17:15:09.511Z,4.45
2022-08-26T17:18:12.042Z,6.03
2022-08-26T17:21:14.154Z,2.38
2022-08-26T17:24:16.021Z,3.55
2022-08-26T17:27:17.794Z,3.60
2022-08-26T17:30:20.965Z,5.90
2022-08-26T17:33:25.252Z,6.65
2022-08-26T17:36:28.404Z,2.78
2022-08-26T17:39:30.241Z,7.85
2022-08-26T17:42:32.017Z,4.28
2022-08-26T17:45:38.408Z,3.20
2022-08-26T17:48:41.097Z,5.00
2022-08-26T17:51:42.853Z,6.30
2022-08-26T17:54:44.552Z,5.78
2022-08-26T17:57:53.191Z,6.13
2022-08-26T18:00:55.518Z,9.95
2022-08-26T18:04:00.358Z,3.92
2022-08-26T18:07:02.959Z,2.17
2022-08-26T18:10:07.395Z,3.72
2022-08-26T18:13:11.490Z,4.63
2022-08-26T18:16:13.394Z,4.32
2022-08-26T18:19:15.125Z,5.32
2022-08-26T18:22:16.839Z,5.22
2022-08-26T18:25:18.913Z,3.47
2022-08-26T18:28:20.843Z,5.70
2022-08-26T18:31:23.166Z,2.70
2022-08-26T18:34:24.970Z,1.70
2022-08-26T18:37:34.189Z,5.00
2022-08-26T18:40:38.431Z,3.00
2022-08-26T18:43:40.165Z,4.25
2022-08-26T18:46:42.617Z,3.92
2022-08-26T18:49:46.109Z,2.60
2022-08-26T18:52:47.848Z,3.47
2022-08-26T18:55:49.567Z,3.15
2022-08-26T18:58:51.561Z,4.18
2022-08-26T19:01:53.559Z,6.82
2022-08-26T19:04:55.437Z,7.60
2022-08-26T19:07:57.288Z,7.15
2022-08-26T19:10:59.873Z,2.55
2022-08-26T19:14:02.295Z,1.00
2022-08-26T19:17:04.635Z,4.43
2022-08-26T19:20:07.388Z,3.05
2022-08-26T19:23:21.561Z,2.15
2022-08-26T19:26:31.907Z,6.25
2022-08-26T19:29:35.635Z,6.70
2022-08-26T19:32:37.451Z,7.13
2022-08-26T19:35:39.204Z,3.40
2022-08-26T19:38:41.568Z,10.10
2022-08-26T19:41:44.007Z,4.15
2022-08-26T19:45:04.140Z,4.32
2022-08-26T19:48:06.080Z,4.90
2022-08-26T19:51:07.915Z,5.10
2022-08-26T19:54:09.660Z,7.85
2022-08-26T19:57:11.687Z,10.02
2022-08-26T20:00:16.301Z,6.13
2022-08-26T20:03:18.078Z,5.07
2022-08-26T20:06:20.393Z,6.03
2022-08-26T20:09:22.224Z,5.47
2022-08-26T20:12:24.754Z,5.20
2022-08-26T20:15:28.544Z,7.07
2022-08-26T20:18:49.783Z,4.50
2022-08-26T20:21:51.503Z,3.35
2022-08-26T20:24:53.933Z,5.57
2022-08-26T20:27:55.608Z,3.35
2022-08-26T20:30:57.399Z,4.57
2022-08-26T20:33:59.143Z,5.65
2022-08-26T20:37:01.959Z,3.60
2022-08-26T20:40:04.731Z,4.25
2022-08-26T20:43:06.781Z,4.10
2022-08-26T20:46:17.270Z,4.25
2022-08-26T20:49:20.945Z,4.32
2022-08-26T20:52:22.764Z,3.33
2022-08-26T20:55:26.298Z,2.72
2022-08-26T20:58:28.281Z,5.40
2022-08-26T21:01:34.638Z,5.60
2022-08-26T21:04:36.623Z,7.63
2022-08-26T21:07:39.299Z,3.47
2022-08-26T21:10:41.025Z,5.93
2022-08-26T21:14:03.985Z,2.47
2022-08-26T21:17:04.881Z,5.30
2022-08-26T21:20:07.343Z,8.20
2022-08-26T21:23:09.053Z,5.15
2022-08-26T21:26:13.589Z,7.07
2022-08-26T21:29:15.375Z,4.18
2022-08-26T21:32:17.273Z,4.05
2022-08-26T21:35:19.309Z,5.50
2022-08-26T21:38:21.780Z,3.20
2022-08-26T21:41:24.920Z,7.70
2022-08-26T21:44:26.684Z,4.40
2022-08-26T21:47:28.765Z,6.22
2022-08-26T21:50:30.535Z,9.60
2022-08-26T21:53:32.317Z,6.00
2022-08-26T21:56:39.547Z,4.22
2022-08-26T21:59:41.317Z,6.57
2022-08-26T22:02:43.101Z,4.47
2022-08-26T22:05:46.381Z,4.70
2022-08-26T22:08:48.729Z,7.63
2022-08-26T22:11:51.639Z,5.38
2022-08-26T22:14:53.840Z,9.17
2022-08-26T22:17:55.557Z,5.78
2022-08-26T22:21:05.715Z,5.85
2022-08-26T22:24:08.550Z,4.30
2022-08-26T22:27:11.937Z,5.80
2022-08-26T22:30:13.837Z,3.53
2022-08-26T22:33:16.703Z,5.30
2022-08-26T22:36:20.951Z,5.03
2022-08-26T22:39:25.120Z,4.05
2022-08-26T22:42:27.069Z,6.13
2022-08-26T22:45:31.254Z,2.92
2022-08-26T22:48:33.143Z,7.20
2022-08-26T22:51:34.996Z,5.68
2022-08-26T22:54:36.752Z,7.88
2022-08-26T22:57:38.981Z,4.55
2022-08-26T23:00:42.130Z,4.47
2022-08-26T23:03:45.111Z,3.77
2022-08-26T23:06:47.500Z,4.50
2022-08-26T23:09:49.734Z,4.65
2022-08-26T23:12:52.371Z,4.70
2022-08-26T23:16:02.267Z,8.03
2022-08-26T23:19:04.944Z,7.30
2022-08-26T23:22:06.859Z,4.80
2022-08-26T23:25:10.549Z,5.63
2022-08-26T23:28:13.047Z,3.53
2022-08-26T23:31:14.830Z,4.50
2022-08-26T23:34:35.412Z,3.20
2022-08-26T23:37:42.250Z,6.10
2022-08-26T23:40:44.003Z,5.27
2022-08-26T23:43:45.738Z,3.87
2022-08-26T23:46:47.510Z,2.83
2022-08-26T23:49:49.285Z,2.63
2022-08-26T23:53:05.997Z,3.40
2022-08-26T23:56:14.876Z,10.23
2022-08-26T23:59:16.616Z,4.03
